Time;durP1;ratioP1;P1;durP2;ratioP2;P2;SDS_P1;SDS_P2;PMS_P1;PMS_P2;Temp;Humidity;BMP_temperature;BMP_pressure;BME280_temperature;BME280_humidity;BME280_pressure;Samples;Min_cycle;Max_cycle;Signal;HPM_P1;HPM_P2
2022/02/04 00:08:25;;;;;;;;;;;9.90;80.30;;;;;;4878145;29;19936;-67
2022/02/04 00:24:41;;;;;;;;;;;9.90;81.30;;;;;;4863059;29;19928;-67
2022/02/04 00:27:15;;;;;;;;;;;9.90;81.30;;;;;;4872377;29;19951;-67
2022/02/04 00:32:19;;;;;;;;;;;9.80;81.80;;;;;;4873651;29;19955;-67
2022/02/04 00:34:52;;;;;;;;;;;9.80;81.90;;;;;;4874553;29;20557;-67
2022/02/04 00:37:30;;;;;;;;;;;9.80;82.20;;;;;;4874891;29;19931;-67
2022/02/04 00:40:07;;;;;;;;;;;9.80;82.40;;;;;;4878028;29;19928;-69
2022/02/04 00:42:35;;;;;;;;;;;9.80;82.80;;;;;;4879265;29;19932;-67
2022/02/04 00:45:17;;;;;;;;;;;9.80;83.00;;;;;;4880354;29;19928;-68
2022/02/04 00:50:58;;;;;;;;;;;9.80;83.80;;;;;;4879729;29;19928;-68
2022/02/04 01:26:17;;;;;;;;;;;7.00;88.40;;;;;;4878610;29;19935;-66
2022/02/04 01:28:45;;;;;;;;;;;7.00;88.60;;;;;;4877720;29;19942;-66
2022/02/04 01:31:18;;;;;;;;;;;6.80;88.80;;;;;;4878538;29;19928;-65
2022/02/04 01:33:46;;;;;;;;;;;6.80;89.00;;;;;;4878716;29;20358;-66
2022/02/04 01:36:14;;;;;;;;;;;6.70;89.10;;;;;;4878929;29;19951;-66
2022/02/04 01:38:42;;;;;;;;;;;6.70;89.10;;;;;;4878346;29;20393;-65
2022/02/04 01:41:10;;;;;;;;;;;6.60;89.20;;;;;;4881768;29;20412;-66
2022/02/04 01:43:38;;;;;;;;;;;6.60;89.20;;;;;;4883425;29;20408;-65
2022/02/04 01:46:06;;;;;;;;;;;6.60;89.30;;;;;;4880373;29;19935;-65
2022/02/04 01:48:34;;;;;;;;;;;6.60;89.40;;;;;;4879177;29;19928;-65
2022/02/04 01:51:03;;;;;;;;;;;6.50;89.50;;;;;;4878911;29;19928;-65
2022/02/04 01:53:31;;;;;;;;;;;6.50;89.60;;;;;;4880046;29;19928;-66
2022/02/04 01:55:59;;;;;;;;;;;6.40;89.60;;;;;;4880053;29;19927;-65
2022/02/04 01:58:27;;;;;;;;;;;6.40;89.70;;;;;;4878883;29;19944;-66
2022/02/04 02:00:55;;;;;;;;;;;6.30;89.80;;;;;;4868717;29;19935;-65
2022/02/04 02:03:23;;;;;;;;;;;6.30;89.90;;;;;;4879950;29;20335;-65
2022/02/04 02:05:51;;;;;;;;;;;6.30;90.00;;;;;;4880073;29;20420;-65
2022/02/04 02:08:20;;;;;;;;;;;6.30;90.00;;;;;;4879505;29;19936;-65
2022/02/04 02:10:49;;;;;;;;;;;6.30;90.10;;;;;;4879690;29;19946;-65
2022/02/04 02:13:42;;;;;;;;;;;6.30;90.00;;;;;;4880346;29;19947;-66
2022/02/04 02:16:35;;;;;;;;;;;6.20;90.00;;;;;;4879609;29;19928;-66
2022/02/04 02:59:58;;;;;;;;;;;5.00;89.70;;;;;;4878329;29;19928;-65
2022/02/04 03:02:18;;;;;;;;;;;5.00;89.80;;;;;;4877762;29;20401;-65
2022/02/04 03:04:45;;;;;;;;;;;4.90;89.70;;;;;;4879850;29;19935;-66
2022/02/04 03:07:12;;;;;;;;;;;4.80;89.80;;;;;;4878892;29;19927;-66
2022/02/04 03:09:40;;;;;;;;;;;4.90;89.90;;;;;;4879024;29;20385;-66
2022/02/04 03:12:08;;;;;;;;;;;4.80;89.80;;;;;;4879255;29;19944;-66
2022/02/04 03:14:35;;;;;;;;;;;4.80;89.60;;;;;;4878893;29;20305;-66
2022/02/04 03:17:06;;;;;;;;;;;4.80;89.70;;;;;;4875794;29;20414;-66
2022/02/04 03:19:34;;;;;;;;;;;4.70;89.80;;;;;;4877269;29;19950;-66
2022/02/04 03:22:06;;;;;;;;;;;4.70;89.70;;;;;;4874346;29;19943;-66
2022/02/04 03:24:34;;;;;;;;;;;4.60;89.70;;;;;;4877301;29;19928;-66
2022/02/04 03:27:07;;;;;;;;;;;4.60;89.50;;;;;;4876983;29;20413;-66
2022/02/04 03:29:55;;;;;;;;;;;4.50;89.40;;;;;;4876360;29;20306;-66
2022/02/04 03:32:23;;;;;;;;;;;4.40;89.20;;;;;;4874078;29;19997;-66
2022/02/04 03:34:50;;;;;;;;;;;4.30;89.30;;;;;;4877841;29;19928;-66
2022/02/04 03:37:18;;;;;;;;;;;4.30;89.30;;;;;;4878094;29;20302;-66
2022/02/04 03:39:45;;;;;;;;;;;4.20;89.30;;;;;;4875409;29;19928;-66
2022/02/04 03:42:12;;;;;;;;;;;4.10;89.20;;;;;;4859404;29;19928;-66
2022/02/04 03:44:40;;;;;;;;;;;4.10;89.40;;;;;;4878336;29;20309;-66
2022/02/04 03:47:07;;;;;;;;;;;4.10;89.50;;;;;;4874515;29;19931;-67
2022/02/04 03:49:35;;;;;;;;;;;4.00;89.50;;;;;;4878121;29;20298;-66
2022/02/04 03:52:02;;;;;;;;;;;3.90;89.50;;;;;;4878919;29;19935;-67
2022/02/04 03:54:30;;;;;;;;;;;3.90;89.10;;;;;;4877796;29;19928;-66
2022/02/04 03:56:57;;;;;;;;;;;3.80;89.00;;;;;;4880022;29;19936;-65
2022/02/04 03:59:26;;;;;;;;;;;3.70;89.10;;;;;;4877970;29;19928;-65
2022/02/04 04:01:53;;;;;;;;;;;3.70;89.30;;;;;;4878458;29;19935;-66
2022/02/04 04:04:21;;;;;;;;;;;3.60;89.40;;;;;;4877728;29;19928;-65
2022/02/04 04:06:49;;;;;;;;;;;3.60;89.50;;;;;;4877643;29;20211;-65
2022/02/04 04:09:16;;;;;;;;;;;3.60;89.70;;;;;;4878028;29;19935;-65
2022/02/04 04:11:47;;;;;;;;;;;3.50;89.70;;;;;;4877990;29;20386;-65
2022/02/04 04:14:15;;;;;;;;;;;3.50;89.80;;;;;;4878067;29;20390;-65
2022/02/04 04:16:42;;;;;;;;;;;3.50;89.90;;;;;;4877024;29;19935;-65
2022/02/04 04:19:09;;;;;;;;;;;3.50;89.90;;;;;;4877846;29;20003;-65
2022/02/04 04:21:39;;;;;;;;;;;3.50;90.00;;;;;;4877891;29;19928;-65
2022/02/04 04:24:07;;;;;;;;;;;3.50;90.10;;;;;;4877872;29;19928;-65
2022/02/04 04:26:34;;;;;;;;;;;3.60;90.20;;;;;;4876264;29;20323;-65
2022/02/04 04:29:01;;;;;;;;;;;3.60;90.20;;;;;;4875317;29;19935;-65
2022/02/04 04:31:29;;;;;;;;;;;3.50;90.20;;;;;;4878509;29;19928;-65
2022/02/04 04:33:57;;;;;;;;;;;3.50;90.20;;;;;;4877673;29;20318;-65
2022/02/04 04:36:24;;;;;;;;;;;3.60;90.10;;;;;;4876006;29;20314;-65
2022/02/04 04:39:48;;;;;;;;;;;3.50;90.10;;;;;;4877939;29;19928;-65
2022/02/04 05:26:25;;;;;;;;;;;3.20;90.10;;;;;;4801395;29;19936;-64
2022/02/04 05:31:20;;;;;;;;;;;3.20;90.20;;;;;;4790649;29;19937;-65
2022/02/04 05:33:49;;;;;;;;;;;3.30;90.20;;;;;;4802970;29;19929;-65
2022/02/04 05:36:16;;;;;;;;;;;3.30;90.20;;;;;;4804132;29;19936;-64
2022/02/04 05:38:44;;;;;;;;;;;3.20;90.20;;;;;;4854819;29;19927;-65
2022/02/04 05:41:17;;;;;;;;;;;3.20;90.20;;;;;;4879328;29;19928;-64
2022/02/04 05:43:47;;;;;;;;;;;3.20;90.10;;;;;;4880358;29;19935;-65
2022/02/04 05:46:19;;;;;;;;;;;3.20;90.10;;;;;;4879087;29;20391;-65
2022/02/04 05:48:52;;;;;;;;;;;3.20;89.90;;;;;;4880475;29;19928;-64
2022/02/04 05:54:17;;;;;;;;;;;3.10;89.80;;;;;;4879819;29;19935;-65
2022/02/04 05:59:31;;;;;;;;;;;3.10;89.90;;;;;;4880220;29;19951;-64
2022/02/04 06:05:07;;;;;;;;;;;3.00;89.80;;;;;;4877882;29;19951;-65
2022/02/04 06:23:50;;;;;;;;;;;3.00;89.50;;;;;;4876914;29;19932;-65
2022/02/04 06:26:17;;;;;;;;;;;3.00;89.50;;;;;;4878568;29;19935;-65
2022/02/04 06:28:44;;;;;;;;;;;3.00;89.50;;;;;;4879160;29;20394;-65
2022/02/04 06:31:12;;;;;;;;;;;3.00;89.50;;;;;;4880326;29;19935;-65
2022/02/04 06:33:40;;;;;;;;;;;3.00;89.40;;;;;;4878132;29;19939;-65
2022/02/04 06:36:07;;;;;;;;;;;2.90;89.40;;;;;;4879434;29;19932;-65
2022/02/04 06:38:34;;;;;;;;;;;3.00;89.50;;;;;;4879040;29;20287;-65
2022/02/04 06:41:03;;;;;;;;;;;3.00;89.50;;;;;;4877703;29;19935;-65
2022/02/04 06:43:31;;;;;;;;;;;2.90;89.40;;;;;;4879311;29;19934;-66
2022/02/04 06:45:59;;;;;;;;;;;2.90;89.50;;;;;;4879104;29;19955;-67
2022/02/04 06:48:26;;;;;;;;;;;2.90;89.60;;;;;;4875343;29;19931;-67
2022/02/04 06:50:54;;;;;;;;;;;2.90;89.60;;;;;;4877022;29;20263;-67
2022/02/04 06:53:21;;;;;;;;;;;2.90;89.60;;;;;;4879467;29;19928;-67
2022/02/04 06:55:49;;;;;;;;;;;2.90;89.60;;;;;;4861266;29;20390;-66
2022/02/04 06:58:16;;;;;;;;;;;2.90;89.70;;;;;;4878210;29;19936;-67
2022/02/04 07:00:44;;;;;;;;;;;2.90;89.80;;;;;;4879127;29;20306;-65
2022/02/04 07:03:12;;;;;;;;;;;2.80;89.80;;;;;;4878515;29;19928;-65
2022/02/04 07:05:51;;;;;;;;;;;2.80;89.90;;;;;;4878561;29;19928;-66
2022/02/04 07:09:06;;;;;;;;;;;2.80;89.90;;;;;;4879986;29;19928;-65
2022/02/04 07:22:09;;;;;;;;;;;2.70;90.00;;;;;;4878440;29;20289;-68
2022/02/04 07:24:37;;;;;;;;;;;2.70;89.90;;;;;;4878275;29;20449;-66
2022/02/04 07:27:05;;;;;;;;;;;2.70;89.90;;;;;;4875870;29;19935;-66
2022/02/04 07:29:33;;;;;;;;;;;2.70;90.00;;;;;;4878580;29;19935;-66
2022/02/04 07:32:09;;;;;;;;;;;2.70;90.10;;;;;;4877334;29;19947;-66
2022/02/04 07:34:59;;;;;;;;;;;2.60;90.10;;;;;;4877967;29;20390;-66
2022/02/04 07:43:01;;;;;;;;;;;2.60;90.00;;;;;;4879466;29;19934;-66
2022/02/04 07:45:28;;;;;;;;;;;2.60;90.00;;;;;;4879401;29;19940;-66
2022/02/04 07:47:57;;;;;;;;;;;2.50;90.10;;;;;;4876919;29;19932;-66
2022/02/04 07:50:25;;;;;;;;;;;2.50;90.10;;;;;;4876849;29;19927;-66
2022/02/04 07:52:53;;;;;;;;;;;2.50;90.10;;;;;;4874118;29;19939;-66
2022/02/04 07:55:25;;;;;;;;;;;2.50;90.00;;;;;;4878085;29;19931;-66
2022/02/04 07:57:53;;;;;;;;;;;2.40;90.00;;;;;;4878008;29;19928;-65
2022/02/04 08:00:21;;;;;;;;;;;2.40;90.20;;;;;;4877182;29;19928;-66
2022/02/04 08:02:50;;;;;;;;;;;2.30;90.10;;;;;;4878537;29;19936;-66
2022/02/04 08:05:20;;;;;;;;;;;2.30;90.20;;;;;;4876598;29;19936;-66
2022/02/04 08:08:02;;;;;;;;;;;2.30;90.20;;;;;;4877980;29;20314;-67
2022/02/04 08:10:42;;;;;;;;;;;2.20;90.30;;;;;;4886540;29;19935;-66
2022/02/04 08:13:41;;;;;;;;;;;2.20;90.40;;;;;;4876634;29;19935;-68
2022/02/04 08:24:24;;;;;;;;;;;2.30;90.30;;;;;;4877889;29;19928;-66
2022/02/04 08:48:41;;;;;;;;;;;2.20;90.90;;;;;;4877074;29;19928;-67
2022/02/04 08:56:34;;;;;;;;;;;2.30;90.80;;;;;;4878068;29;19928;-67
2022/02/04 08:59:09;;;;;;;;;;;2.30;90.70;;;;;;4878422;29;19947;-66
2022/02/04 09:01:49;;;;;;;;;;;2.40;90.60;;;;;;4878300;29;19928;-66
2022/02/04 09:04:19;;;;;;;;;;;2.50;90.40;;;;;;4880945;29;20001;-66
2022/02/04 09:06:52;;;;;;;;;;;2.50;90.00;;;;;;4880794;29;19942;-67
2022/02/04 09:09:40;;;;;;;;;;;2.60;89.90;;;;;;4882047;29;19935;-66
2022/02/04 09:12:23;;;;;;;;;;;2.60;89.80;;;;;;4879977;29;19928;-67
2022/02/04 09:20:34;;;;;;;;;;;2.80;89.60;;;;;;4882432;29;19932;-67
2022/02/04 09:23:03;;;;;;;;;;;2.90;89.50;;;;;;4880582;29;19932;-67
2022/02/04 09:25:30;;;;;;;;;;;3.00;89.50;;;;;;4881609;29;19951;-67
2022/02/04 09:27:57;;;;;;;;;;;3.10;89.30;;;;;;4881307;29;19934;-68
2022/02/04 09:30:25;;;;;;;;;;;3.20;89.00;;;;;;4881516;29;19950;-67
2022/02/04 09:32:52;;;;;;;;;;;3.30;88.70;;;;;;4880400;29;20390;-67
2022/02/04 09:35:24;;;;;;;;;;;3.30;88.40;;;;;;4881803;29;19928;-67
2022/02/04 09:37:53;;;;;;;;;;;3.40;88.20;;;;;;4880961;29;19935;-68
2022/02/04 09:40:20;;;;;;;;;;;3.50;88.00;;;;;;4881681;29;19935;-67
2022/02/04 09:42:49;;;;;;;;;;;3.50;88.00;;;;;;4879902;29;19928;-67
2022/02/04 09:45:19;;;;;;;;;;;3.60;87.90;;;;;;4881212;29;19928;-67
2022/02/04 09:47:47;;;;;;;;;;;3.70;87.80;;;;;;4881809;29;19927;-67
2022/02/04 09:50:18;;;;;;;;;;;3.80;87.80;;;;;;4881137;29;19928;-67
2022/02/04 10:05:05;;;;;;;;;;;4.40;84.90;;;;;;4882566;29;19939;-67
2022/02/04 10:18:12;;;;;;;;;;;4.70;83.60;;;;;;4880982;29;19935;-67
2022/02/04 10:20:41;;;;;;;;;;;4.80;82.40;;;;;;4880844;29;19928;-67
2022/02/04 10:23:09;;;;;;;;;;;4.70;82.20;;;;;;4880962;29;19935;-67
2022/02/04 10:25:40;;;;;;;;;;;4.70;82.30;;;;;;4880523;29;19928;-68
2022/02/04 10:28:25;;;;;;;;;;;4.70;82.20;;;;;;4879879;29;19939;-68
2022/02/04 10:31:25;;;;;;;;;;;4.80;82.20;;;;;;4880143;29;20421;-67
2022/02/04 10:33:57;;;;;;;;;;;4.80;82.00;;;;;;4870569;29;20406;-69
2022/02/04 10:36:34;;;;;;;;;;;4.80;81.00;;;;;;4878456;29;19938;-68
2022/02/04 10:39:20;;;;;;;;;;;4.90;80.70;;;;;;4894822;29;19935;-69
2022/02/04 10:42:07;;;;;;;;;;;5.00;81.40;;;;;;4880445;29;19935;-69
2022/02/04 10:44:47;;;;;;;;;;;5.30;81.60;;;;;;4874767;29;20008;-69
2022/02/04 10:47:50;;;;;;;;;;;5.40;79.80;;;;;;4862382;29;19928;-69
2022/02/04 11:01:29;;;;;;;;;;;5.70;77.70;;;;;;4877727;29;19928;-69
2022/02/04 11:04:17;;;;;;;;;;;5.70;77.90;;;;;;4879943;29;20302;-69
2022/02/04 11:07:08;;;;;;;;;;;5.70;77.80;;;;;;4861535;29;19935;-69
2022/02/04 11:32:10;;;;;;;;;;;5.90;75.30;;;;;;4879580;29;19935;-69
2022/02/04 11:44:22;;;;;;;;;;;6.30;73.70;;;;;;4878605;29;19934;-69
2022/02/04 11:55:21;;;;;;;;;;;6.80;72.80;;;;;;4867889;29;19928;-70
2022/02/04 11:58:03;;;;;;;;;;;7.10;71.30;;;;;;4877634;29;20414;-69
2022/02/04 12:00:35;;;;;;;;;;;7.10;70.50;;;;;;4877595;29;19935;-69
2022/02/04 12:03:21;;;;;;;;;;;7.00;70.70;;;;;;4860013;29;19928;-69
2022/02/04 12:05:48;;;;;;;;;;;6.90;71.10;;;;;;4877062;29;20317;-70
2022/02/04 12:08:17;;;;;;;;;;;7.00;71.60;;;;;;4878516;29;19927;-69
2022/02/04 12:10:51;;;;;;;;;;;7.30;71.60;;;;;;4879646;29;19928;-69
2022/02/04 12:13:19;;;;;;;;;;;7.60;70.40;;;;;;4878998;29;19928;-69
2022/02/04 12:15:58;;;;;;;;;;;7.90;68.80;;;;;;4875827;29;19928;-69
2022/02/04 12:18:34;;;;;;;;;;;8.30;66.90;;;;;;4878912;29;19928;-70
2022/02/04 12:21:03;;;;;;;;;;;8.30;65.20;;;;;;4880893;29;19931;-69
2022/02/04 12:23:41;;;;;;;;;;;8.00;66.60;;;;;;4877871;29;19935;-69
2022/02/04 12:26:08;;;;;;;;;;;7.70;67.60;;;;;;4878093;29;19934;-69
2022/02/04 12:28:36;;;;;;;;;;;7.40;68.50;;;;;;4877491;29;19928;-69
2022/02/04 12:31:14;;;;;;;;;;;7.30;68.80;;;;;;4878829;29;19932;-69
2022/02/04 12:33:42;;;;;;;;;;;7.10;69.00;;;;;;4879095;29;20295;-69
2022/02/04 12:36:23;;;;;;;;;;;7.10;70.20;;;;;;4878799;29;19928;-69
2022/02/04 12:38:52;;;;;;;;;;;7.70;71.20;;;;;;4876586;29;19928;-70
2022/02/04 12:41:20;;;;;;;;;;;8.50;67.70;;;;;;4864151;29;19928;-70
2022/02/04 12:43:49;;;;;;;;;;;8.80;64.80;;;;;;4855485;29;20402;-69
2022/02/04 12:46:17;;;;;;;;;;;8.50;64.40;;;;;;4876489;29;19928;-69
2022/02/04 12:48:54;;;;;;;;;;;8.00;65.00;;;;;;4880997;29;19939;-70
2022/02/04 12:51:34;;;;;;;;;;;7.50;65.80;;;;;;4886954;29;19931;-70
2022/02/04 12:54:01;;;;;;;;;;;7.10;67.40;;;;;;4880765;29;19928;-69
2022/02/04 12:56:41;;;;;;;;;;;6.80;69.40;;;;;;4882454;29;19934;-72
2022/02/04 13:02:03;;;;;;;;;;;6.90;70.20;;;;;;4882254;29;19928;-69
2022/02/04 13:07:40;;;;;;;;;;;6.70;71.10;;;;;;4896191;29;20195;-67
2022/02/04 13:10:20;;;;;;;;;;;6.60;72.60;;;;;;4881751;29;19928;-69
2022/02/04 13:12:55;;;;;;;;;;;7.00;72.90;;;;;;4882384;29;20006;-69
2022/02/04 13:15:23;;;;;;;;;;;7.30;71.50;;;;;;4882475;29;19928;-68
2022/02/04 13:17:50;;;;;;;;;;;7.50;71.30;;;;;;4881750;29;20275;-68
2022/02/04 13:20:21;;;;;;;;;;;7.50;69.60;;;;;;4879548;29;19947;-69
2022/02/04 13:22:51;;;;;;;;;;;7.40;69.80;;;;;;4880299;29;20397;-68
2022/02/04 13:25:19;;;;;;;;;;;7.90;69.30;;;;;;4881669;29;19928;-68
2022/02/04 13:28:05;;;;;;;;;;;8.70;64.60;;;;;;4881369;29;19928;-68
2022/02/04 13:30:34;;;;;;;;;;;9.20;61.00;;;;;;4880750;29;19927;-69
2022/02/04 13:33:01;;;;;;;;;;;9.50;61.30;;;;;;4880519;29;19928;-68
2022/02/04 13:35:41;;;;;;;;;;;9.60;60.80;;;;;;4881324;29;19931;-68
2022/02/04 13:38:17;;;;;;;;;;;10.10;60.40;;;;;;4864879;29;20408;-67
2022/02/04 13:40:50;;;;;;;;;;;10.60;58.10;;;;;;4881801;29;19932;-67
2022/02/04 13:43:27;;;;;;;;;;;10.60;57.90;;;;;;4881854;29;19936;-68
2022/02/04 13:46:01;;;;;;;;;;;10.40;56.90;;;;;;4881392;29;19939;-68
2022/02/04 13:48:49;;;;;;;;;;;9.90;56.30;;;;;;4881378;29;19928;-68
2022/02/04 13:51:26;;;;;;;;;;;9.30;56.80;;;;;;4881564;29;19928;-68
2022/02/04 13:54:24;;;;;;;;;;;8.60;59.00;;;;;;4880349;29;20294;-67
2022/02/04 13:57:09;;;;;;;;;;;8.20;61.00;;;;;;4881261;29;20445;-69
2022/02/04 13:59:56;;;;;;;;;;;7.80;62.70;;;;;;4881199;29;19927;-68
2022/02/04 14:02:27;;;;;;;;;;;7.50;63.20;;;;;;4880149;29;20310;-68
2022/02/04 14:04:58;;;;;;;;;;;7.30;63.30;;;;;;4881285;29;19932;-67
2022/02/04 14:07:55;;;;;;;;;;;7.00;63.90;;;;;;4879973;29;19928;-68
2022/02/04 14:10:29;;;;;;;;;;;6.90;64.60;;;;;;4880900;29;20007;-68
2022/02/04 14:12:57;;;;;;;;;;;7.60;61.60;;;;;;4879942;29;19935;-67
2022/02/04 14:15:31;;;;;;;;;;;8.20;60.50;;;;;;4881010;29;19947;-67
2022/02/04 14:18:05;;;;;;;;;;;8.80;59.30;;;;;;4881264;29;19938;-68
2022/02/04 14:20:33;;;;;;;;;;;9.30;57.30;;;;;;4881912;29;20305;-69
2022/02/04 14:23:01;;;;;;;;;;;9.60;55.70;;;;;;4881130;29;19928;-67
2022/02/04 14:25:28;;;;;;;;;;;9.60;54.70;;;;;;4879912;29;19935;-68
2022/02/04 14:27:59;;;;;;;;;;;9.40;54.40;;;;;;4880779;29;19928;-68
2022/02/04 14:30:33;;;;;;;;;;;9.00;54.50;;;;;;4880892;29;19928;-68
2022/02/04 14:33:38;;;;;;;;;;;8.50;56.50;;;;;;4881377;29;19935;-68
2022/02/04 14:36:12;;;;;;;;;;;8.20;57.90;;;;;;4880603;29;19928;-67
2022/02/04 15:03:02;;;;;;;;;;;7.00;59.90;;;;;;4879722;29;19927;-68
2022/02/04 15:05:38;;;;;;;;;;;7.00;60.70;;;;;;4879727;29;19935;-68
2022/02/04 15:08:19;;;;;;;;;;;6.90;61.60;;;;;;4880119;29;20425;-68
2022/02/04 15:10:48;;;;;;;;;;;6.80;62.50;;;;;;4879186;29;19927;-69
2022/02/04 15:13:17;;;;;;;;;;;6.70;63.00;;;;;;4878922;29;19931;-68
2022/02/04 15:15:45;;;;;;;;;;;6.60;63.10;;;;;;4879585;29;19935;-71
2022/02/04 15:18:14;;;;;;;;;;;6.80;63.60;;;;;;4890829;29;20394;-70
2022/02/04 15:20:41;;;;;;;;;;;6.80;63.40;;;;;;4879395;29;19935;-70
2022/02/04 15:23:12;;;;;;;;;;;6.70;63.30;;;;;;4881018;29;19928;-68
2022/02/04 15:25:39;;;;;;;;;;;6.60;63.70;;;;;;4880460;29;19928;-69
2022/02/04 15:30:39;;;;;;;;;;;6.30;63.50;;;;;;4877802;29;19935;-69
2022/02/04 15:33:07;;;;;;;;;;;6.20;63.50;;;;;;4878679;29;19928;-69
2022/02/04 15:35:34;;;;;;;;;;;6.10;63.60;;;;;;4878990;29;19935;-69
2022/02/04 15:38:02;;;;;;;;;;;6.00;64.30;;;;;;4877478;29;19935;-69
2022/02/04 15:40:30;;;;;;;;;;;6.10;64.60;;;;;;4882426;29;19934;-69
2022/02/04 15:43:00;;;;;;;;;;;6.30;64.00;;;;;;4897999;29;19936;-69
2022/02/04 15:48:12;;;;;;;;;;;6.60;62.80;;;;;;4876371;29;19936;-69
2022/02/04 15:56:16;;;;;;;;;;;8.30;57.90;;;;;;4878836;29;20298;-68
2022/02/04 16:06:11;;;;;;;;;;;7.00;60.00;;;;;;4879293;29;19928;-68
2022/02/04 16:08:39;;;;;;;;;;;6.90;61.00;;;;;;4877743;29;19934;-68
2022/02/04 16:12:03;;;;;;;;;;;7.30;60.80;;;;;;4877311;29;19931;-68
2022/02/04 16:14:05;;;;;;;;;;;7.80;60.00;;;;;;4877749;29;19928;-68
2022/02/04 16:16:39;;;;;;;;;;;8.30;58.90;;;;;;4872820;29;20297;-68
2022/02/04 16:19:18;;;;;;;;;;;8.20;58.40;;;;;;4878998;29;20148;-68
2022/02/04 16:26:56;;;;;;;;;;;6.90;60.50;;;;;;4856078;29;19928;-69
2022/02/04 16:29:24;;;;;;;;;;;6.70;61.50;;;;;;4886902;29;19928;-68
2022/02/04 16:31:52;;;;;;;;;;;6.50;62.30;;;;;;4869842;29;19935;-69
2022/02/04 16:34:23;;;;;;;;;;;6.30;63.20;;;;;;4892768;29;19928;-69
2022/02/04 16:37:03;;;;;;;;;;;6.20;64.00;;;;;;4897123;29;19958;-69
2022/02/04 16:39:33;;;;;;;;;;;5.90;64.80;;;;;;4878032;29;19928;-68
2022/02/04 16:42:10;;;;;;;;;;;5.90;65.40;;;;;;4877122;29;19928;-69
2022/02/04 16:44:39;;;;;;;;;;;5.90;65.70;;;;;;4877205;29;20382;-69
2022/02/04 16:47:07;;;;;;;;;;;5.80;66.10;;;;;;4875142;29;19936;-69
2022/02/04 16:49:35;;;;;;;;;;;5.80;65.40;;;;;;4887986;29;20416;-73
2022/02/04 16:52:03;;;;;;;;;;;5.70;65.60;;;;;;4891332;29;20334;-68
2022/02/04 16:54:33;;;;;;;;;;;5.60;66.10;;;;;;4875609;29;19947;-68
2022/02/04 16:57:01;;;;;;;;;;;5.50;66.30;;;;;;4873888;29;19948;-68
2022/02/04 16:59:29;;;;;;;;;;;5.40;66.80;;;;;;4875314;29;19935;-68
2022/02/04 17:01:57;;;;;;;;;;;5.30;67.10;;;;;;4878761;29;19936;-68
2022/02/04 17:04:25;;;;;;;;;;;5.30;67.50;;;;;;4874700;29;19935;-68
2022/02/04 17:07:03;;;;;;;;;;;5.20;67.90;;;;;;4874968;29;19934;-68
2022/02/04 17:09:39;;;;;;;;;;;5.20;68.20;;;;;;4876908;29;19932;-68
2022/02/04 17:12:09;;;;;;;;;;;5.20;68.70;;;;;;4875350;29;19936;-68
2022/02/04 17:14:37;;;;;;;;;;;5.10;68.80;;;;;;4874273;29;19943;-67
2022/02/04 17:17:05;;;;;;;;;;;5.00;68.80;;;;;;4873557;29;19928;-67
2022/02/04 17:19:42;;;;;;;;;;;5.00;68.90;;;;;;4873866;29;19928;-67
2022/02/04 17:22:12;;;;;;;;;;;4.90;68.70;;;;;;4873811;29;19928;-69
2022/02/04 17:24:40;;;;;;;;;;;4.90;68.80;;;;;;4875926;29;19928;-68
2022/02/04 17:27:07;;;;;;;;;;;4.80;68.90;;;;;;4878191;29;20438;-68
2022/02/04 17:29:35;;;;;;;;;;;4.80;69.10;;;;;;4878497;29;19939;-68
2022/02/04 17:32:03;;;;;;;;;;;4.80;69.40;;;;;;4879414;29;19931;-67
2022/02/04 17:34:31;;;;;;;;;;;4.80;69.80;;;;;;4879797;29;19934;-67
2022/02/04 17:36:58;;;;;;;;;;;4.80;70.40;;;;;;4884008;29;19927;-84
2022/02/04 17:39:27;;;;;;;;;;;4.80;70.50;;;;;;4880220;29;19935;-82
2022/02/04 17:42:01;;;;;;;;;;;4.70;71.00;;;;;;4877711;29;19928;-67
2022/02/04 17:44:30;;;;;;;;;;;4.60;71.40;;;;;;4880280;29;19927;-67
2022/02/04 17:46:58;;;;;;;;;;;4.60;72.00;;;;;;4876074;29;19938;-68
2022/02/04 17:49:37;;;;;;;;;;;4.50;72.20;;;;;;4877471;29;19928;-67
2022/02/04 17:55:08;;;;;;;;;;;4.40;72.70;;;;;;4881376;29;19954;-68
2022/02/04 18:02:56;;;;;;;;;;;4.30;73.80;;;;;;4878329;29;19927;-67
2022/02/04 18:05:59;;;;;;;;;;;4.30;74.30;;;;;;4879536;29;19935;-68
2022/02/04 18:08:11;;;;;;;;;;;4.30;74.20;;;;;;4878663;29;19935;-67
2022/02/04 18:10:39;;;;;;;;;;;4.30;74.20;;;;;;4879679;29;19928;-67
2022/02/04 18:13:09;;;;;;;;;;;4.30;74.20;;;;;;4878346;29;19928;-67
2022/02/04 18:15:42;;;;;;;;;;;4.30;73.90;;;;;;4876643;29;19927;-68
2022/02/04 18:18:10;;;;;;;;;;;4.40;74.00;;;;;;4878238;29;20293;-67
2022/02/04 18:20:38;;;;;;;;;;;4.40;73.90;;;;;;4879755;29;19932;-72
2022/02/04 18:23:06;;;;;;;;;;;4.50;73.00;;;;;;4892121;29;19928;-70
2022/02/04 18:25:33;;;;;;;;;;;4.60;73.10;;;;;;4875782;29;19946;-67
2022/02/04 18:28:01;;;;;;;;;;;4.70;72.80;;;;;;4881386;29;19935;-67
2022/02/04 18:30:33;;;;;;;;;;;4.70;72.60;;;;;;4878488;29;19928;-67
2022/02/04 18:33:02;;;;;;;;;;;4.70;72.50;;;;;;4878425;29;19936;-67
2022/02/04 18:35:30;;;;;;;;;;;4.70;72.60;;;;;;4877864;29;19928;-68
2022/02/04 18:38:16;;;;;;;;;;;4.80;71.90;;;;;;4878398;29;20325;-68
2022/02/04 18:43:39;;;;;;;;;;;4.80;71.50;;;;;;4878204;29;19946;-68
2022/02/04 18:46:24;;;;;;;;;;;4.70;71.50;;;;;;4877340;29;19928;-69
2022/02/04 18:48:58;;;;;;;;;;;4.60;71.70;;;;;;4876365;29;20378;-68
2022/02/04 18:54:28;;;;;;;;;;;4.40;72.00;;;;;;4882564;29;19939;-67
2022/02/04 18:57:10;;;;;;;;;;;4.30;72.00;;;;;;4873920;29;19928;-68
2022/02/04 18:59:58;;;;;;;;;;;4.20;72.30;;;;;;4878720;29;20312;-68
2022/02/04 19:02:29;;;;;;;;;;;4.20;72.50;;;;;;4877156;29;19935;-68
2022/02/04 19:05:12;;;;;;;;;;;4.10;72.40;;;;;;4878920;29;19927;-67
2022/02/04 19:07:44;;;;;;;;;;;4.00;72.70;;;;;;4876500;29;19931;-68
2022/02/04 19:10:12;;;;;;;;;;;3.90;73.00;;;;;;4876005;29;19951;-67
2022/02/04 19:12:48;;;;;;;;;;;3.80;73.40;;;;;;4875838;29;19935;-67
2022/02/04 19:15:27;;;;;;;;;;;3.80;73.80;;;;;;4874157;29;19943;-68
2022/02/04 19:17:59;;;;;;;;;;;3.80;74.00;;;;;;4860159;29;19932;-69
2022/02/04 19:20:41;;;;;;;;;;;3.80;74.20;;;;;;4877012;29;19927;-68
2022/02/04 19:23:12;;;;;;;;;;;3.70;74.40;;;;;;4876637;29;19979;-67
2022/02/04 19:25:41;;;;;;;;;;;3.70;74.60;;;;;;4879388;29;19928;-68
2022/02/04 19:28:11;;;;;;;;;;;3.60;74.70;;;;;;4878572;29;19939;-69
2022/02/04 19:30:46;;;;;;;;;;;3.60;74.90;;;;;;4876457;29;20370;-66
2022/02/04 19:33:17;;;;;;;;;;;3.50;75.00;;;;;;4874763;29;19955;-68
2022/02/04 19:35:45;;;;;;;;;;;3.60;75.20;;;;;;4865489;29;19928;-68
2022/02/04 19:38:14;;;;;;;;;;;3.60;75.10;;;;;;4883118;29;19951;-68
2022/02/04 19:40:44;;;;;;;;;;;3.70;74.90;;;;;;4877473;29;19928;-69
2022/02/04 19:43:14;;;;;;;;;;;3.70;74.80;;;;;;4887153;29;19928;-67
2022/02/04 19:46:28;;;;;;;;;;;3.60;74.70;;;;;;4878808;29;19928;-67
2022/02/04 19:48:35;;;;;;;;;;;3.60;74.70;;;;;;4873189;29;19951;-67
2022/02/04 20:07:38;;;;;;;;;;;3.30;76.30;;;;;;4878175;29;20006;-67
2022/02/04 20:23:38;;;;;;;;;;;3.30;76.50;;;;;;4876067;29;20420;-67
2022/02/04 20:26:07;;;;;;;;;;;3.30;76.50;;;;;;4875398;29;20330;-68
2022/02/04 20:28:35;;;;;;;;;;;3.30;76.50;;;;;;4868643;29;19944;-67
2022/02/04 20:31:02;;;;;;;;;;;3.30;76.60;;;;;;4875914;29;20334;-67
2022/02/04 20:33:30;;;;;;;;;;;3.30;76.80;;;;;;4877791;29;20011;-67
2022/02/04 20:35:58;;;;;;;;;;;3.30;76.90;;;;;;4877624;29;19932;-67
2022/02/04 20:38:33;;;;;;;;;;;3.30;76.90;;;;;;4878955;29;19947;-67
2022/02/04 20:41:09;;;;;;;;;;;3.40;76.80;;;;;;4876637;29;19928;-68
2022/02/04 20:43:37;;;;;;;;;;;3.50;76.80;;;;;;4874578;29;19928;-69
2022/02/04 20:46:06;;;;;;;;;;;3.50;76.60;;;;;;4876165;29;19935;-68
2022/02/04 20:48:35;;;;;;;;;;;3.60;76.60;;;;;;4877576;29;19935;-68
2022/02/04 20:51:05;;;;;;;;;;;3.70;76.60;;;;;;4875468;29;20390;-69
2022/02/04 20:53:33;;;;;;;;;;;3.70;76.60;;;;;;4874724;29;19935;-69
2022/02/04 20:56:00;;;;;;;;;;;3.70;76.80;;;;;;4879947;29;19935;-68
2022/02/04 20:58:28;;;;;;;;;;;3.80;76.90;;;;;;4875674;29;19942;-68
2022/02/04 21:00:57;;;;;;;;;;;3.80;76.90;;;;;;4879857;29;20301;-68
2022/02/04 21:03:25;;;;;;;;;;;3.80;77.10;;;;;;4880934;29;20290;-68
2022/02/04 21:13:49;;;;;;;;;;;3.80;77.60;;;;;;4868023;29;19935;-69
2022/02/04 21:16:17;;;;;;;;;;;3.80;77.70;;;;;;4882889;29;19935;-68
2022/02/04 21:18:45;;;;;;;;;;;3.80;77.90;;;;;;4880518;29;19935;-68
2022/02/04 21:21:12;;;;;;;;;;;3.80;78.10;;;;;;4879220;29;20382;-68
2022/02/04 21:23:40;;;;;;;;;;;3.80;78.40;;;;;;4876575;29;19941;-68
2022/02/04 21:26:07;;;;;;;;;;;3.80;78.30;;;;;;4864380;29;19935;-68
2022/02/04 21:28:36;;;;;;;;;;;3.80;78.50;;;;;;4880956;29;19928;-68
2022/02/04 21:31:04;;;;;;;;;;;3.90;78.30;;;;;;4881386;29;19928;-68
2022/02/04 21:34:09;;;;;;;;;;;3.90;78.20;;;;;;4877504;29;19943;-68
2022/02/04 21:39:17;;;;;;;;;;;4.00;78.50;;;;;;4879663;29;19927;-68
2022/02/04 21:41:45;;;;;;;;;;;4.00;78.80;;;;;;4880263;29;19927;-68
2022/02/04 21:44:12;;;;;;;;;;;3.90;79.10;;;;;;4860855;29;19936;-68
2022/02/04 21:46:40;;;;;;;;;;;3.80;79.40;;;;;;4875188;29;19936;-68
2022/02/04 21:49:08;;;;;;;;;;;3.70;79.90;;;;;;4879010;29;19928;-67
2022/02/04 21:51:35;;;;;;;;;;;3.50;80.30;;;;;;4871364;29;19935;-68